Back Gate, Arkansas
Current Conditions -  °F | °C
As of 9:53 AM on Saturday 25 Oct 2014 (Local Time) from KLLQ Reporting Station
Clear Clear  
Wind Chill: 66°   Ceiling: Unl
Heat Index: 66°   Visibility: 10mi
Dew Point: 56°   Wind: 8mph
Humidity: 70%   Direction: 260°W
Pressure: 30.16"   Gusts: NA
Location:  33.9283°N, 91.468°W
Report Text: KLLQ 251453Z AUTO 26007KT 10SM CLR 19/13 A3016 RMK AO2 RAB00E09 SLP210 P0000 60000 T01890133 51012
Loading
Personal Weather Stations






























Interactive Weather Map
Tropical Storm Tracking
New forecast layout! Learn more

10-Day Weather Forecast

Advertisements
Track Severe Weather on mobile